Time;durP1;ratioP1;P1;durP2;ratioP2;P2;SDS_P1;SDS_P2;PMS_P1;PMS_P2;Temp;Humidity;BMP_temperature;BMP_pressure;BME280_temperature;BME280_humidity;BME280_pressure;Samples;Min_cycle;Max_cycle;Signal;HPM_P1;HPM_P2
2024/02/08 00:00:58;;;;;;;0.80;0.60;;;;;;;8.58;100.00;91911.25;2125478;27;20031;-84
2024/02/08 00:02:01;;;;;;;1.08;0.60;;;;;;;8.57;100.00;91909.75;2128214;27;20025;-83
2024/02/08 00:03:07;;;;;;;0.93;0.57;;;;;;;8.51;100.00;91906.16;2123160;27;20031;-82
2024/02/08 00:04:09;;;;;;;0.75;0.50;;;;;;;8.31;100.00;91914.41;2129741;27;20426;-83
2024/02/08 00:05:10;;;;;;;0.40;0.40;;;;;;;8.21;100.00;91907.50;2117723;27;20550;-80
2024/02/08 00:06:11;;;;;;;0.85;0.60;;;;;;;8.53;100.00;91911.81;2100297;28;20025;-81
2024/02/08 00:07:12;;;;;;;4.03;0.63;;;;;;;8.28;100.00;91909.94;2115138;27;20052;-84
2024/02/08 00:08:13;;;;;;;0.57;0.57;;;;;;;8.60;100.00;91904.72;2116344;27;20043;-81
2024/02/08 00:09:14;;;;;;;2.05;0.88;;;;;;;8.63;100.00;91917.94;2043545;28;21738;-80
2024/02/08 00:10:15;;;;;;;0.60;0.50;;;;;;;8.60;100.00;91913.47;2054017;27;21790;-79
2024/02/08 00:11:16;;;;;;;3.05;1.42;;;;;;;8.62;100.00;91915.72;2044909;27;20035;-80
2024/02/08 00:12:18;;;;;;;0.80;0.60;;;;;;;8.56;100.00;91916.28;2042212;27;21562;-81
2024/02/08 00:13:19;;;;;;;0.77;0.68;;;;;;;8.57;100.00;91911.69;2053419;27;21420;-83
2024/02/08 00:14:20;;;;;;;1.08;0.45;;;;;;;8.58;100.00;91913.91;2060295;27;21547;-81
2024/02/08 00:15:21;;;;;;;1.45;0.50;;;;;;;8.72;100.00;91906.59;2067617;27;20106;-82
2024/02/08 00:16:22;;;;;;;0.40;0.40;;;;;;;8.91;100.00;91910.13;2071250;27;20038;-81
2024/02/08 00:17:23;;;;;;;0.57;0.50;;;;;;;8.84;100.00;91916.47;2070577;27;20043;-85
2024/02/08 00:18:25;;;;;;;1.98;0.60;;;;;;;9.07;100.00;91908.03;2074088;27;20039;-82
2024/02/08 00:19:29;;;;;;;1.17;0.60;;;;;;;8.96;100.00;91910.34;2081414;27;20041;-80
2024/02/08 00:20:30;;;;;;;0.60;0.57;;;;;;;8.83;100.00;91907.00;2082908;28;20618;-82
2024/02/08 00:21:32;;;;;;;0.68;0.60;;;;;;;8.77;100.00;91908.72;2082188;28;20290;-83
2024/02/08 00:22:34;;;;;;;0.80;0.60;;;;;;;8.75;100.00;91913.75;2104751;27;20817;-81
2024/02/08 00:23:40;;;;;;;0.98;0.40;;;;;;;8.73;100.00;91908.81;2112006;27;20518;-82
2024/02/08 00:24:44;;;;;;;0.80;0.60;;;;;;;8.57;100.00;91911.69;2107584;28;20119;-84
2024/02/08 00:25:50;;;;;;;1.33;0.60;;;;;;;8.53;100.00;91900.41;2100355;27;20044;-82
2024/02/08 00:26:54;;;;;;;1.35;0.73;;;;;;;8.65;100.00;91899.63;2115643;27;20034;-83
2024/02/08 00:27:58;;;;;;;0.55;0.55;;;;;;;8.76;100.00;91907.22;2128109;27;20043;-80
2024/02/08 00:29:00;;;;;;;1.30;0.70;;;;;;;8.76;100.00;91907.22;2128897;27;20042;-84
2024/02/08 00:30:02;;;;;;;0.45;0.45;;;;;;;8.69;100.00;91892.25;2128481;27;20548;-83
2024/02/08 00:31:04;;;;;;;2.25;0.70;;;;;;;8.60;100.00;91899.41;2106857;27;20028;-82
2024/02/08 00:32:08;;;;;;;0.95;0.50;;;;;;;8.59;100.00;91893.34;2110133;27;20020;-81
2024/02/08 00:33:09;;;;;;;1.42;0.50;;;;;;;8.85;100.00;91895.91;2109865;28;20050;-85
2024/02/08 00:34:11;;;;;;;0.82;0.47;;;;;;;8.74;100.00;91896.28;2102966;28;20065;-80
2024/02/08 00:35:18;;;;;;;0.50;0.50;;;;;;;8.63;100.00;91901.97;2110318;28;20200;-82
2024/02/08 00:36:22;;;;;;;0.52;0.40;;;;;;;8.42;100.00;91903.41;2110839;27;20396;-82
2024/02/08 00:37:25;;;;;;;0.40;0.40;;;;;;;8.50;100.00;91895.94;2106857;27;20603;-81
2024/02/08 00:38:29;;;;;;;1.42;0.68;;;;;;;8.63;100.00;91901.22;2106583;28;20494;-83
2024/02/08 00:39:37;;;;;;;0.70;0.50;;;;;;;8.49;100.00;91895.19;2102778;27;20512;-82
2024/02/08 00:40:40;;;;;;;0.95;0.65;;;;;;;8.45;100.00;91897.22;2110131;27;20522;-82
2024/02/08 00:41:50;;;;;;;0.60;0.50;;;;;;;8.37;100.00;91890.66;2125656;27;20024;-80
2024/02/08 00:42:52;;;;;;;1.27;0.57;;;;;;;8.45;100.00;91899.91;2124893;27;20027;-82
2024/02/08 00:43:56;;;;;;;0.68;0.60;;;;;;;8.56;100.00;91900.28;2107715;27;20031;-82
2024/02/08 00:44:57;;;;;;;0.50;0.50;;;;;;;8.48;100.00;91895.63;2049428;27;20117;-82
2024/02/08 00:45:58;;;;;;;0.63;0.60;;;;;;;8.60;100.00;91892.16;2047382;27;20053;-84
2024/02/08 00:47:02;;;;;;;1.13;0.65;;;;;;;8.46;100.00;91895.31;2061266;27;20112;-81
2024/02/08 00:48:04;;;;;;;2.13;0.63;;;;;;;8.21;100.00;91888.09;2067112;27;20499;-82
2024/02/08 00:49:07;;;;;;;0.50;0.50;;;;;;;8.48;100.00;91890.31;2074173;27;21271;-79
2024/02/08 00:50:10;;;;;;;0.50;0.50;;;;;;;8.47;100.00;91894.13;2072204;27;20035;-80
2024/02/08 00:51:14;;;;;;;0.40;0.40;;;;;;;8.58;100.00;91897.94;2058011;27;22182;-81
2024/02/08 00:52:19;;;;;;;1.30;0.50;;;;;;;8.74;100.00;91890.94;2071981;28;20040;-79
2024/02/08 00:53:20;;;;;;;0.38;0.38;;;;;;;8.74;100.00;91894.34;2083860;27;20040;-80
2024/02/08 00:54:23;;;;;;;0.82;0.60;;;;;;;8.82;100.00;91890.28;2097092;27;20054;-81
2024/02/08 00:55:26;;;;;;;0.95;0.57;;;;;;;8.71;100.00;91892.53;2099337;27;20033;-82
2024/02/08 00:56:27;;;;;;;1.25;0.40;;;;;;;8.78;100.00;91892.31;2104174;27;20436;-81
2024/02/08 00:57:32;;;;;;;1.25;0.68;;;;;;;8.74;100.00;91894.34;2104969;28;20034;-83
2024/02/08 00:58:33;;;;;;;0.60;0.57;;;;;;;8.80;100.00;91897.19;2111643;27;20012;-82
2024/02/08 00:59:37;;;;;;;1.15;0.50;;;;;;;8.89;100.00;91893.84;2120563;27;20035;-81
2024/02/08 01:00:38;;;;;;;0.55;0.50;;;;;;;8.67;100.00;91894.59;2110961;28;20040;-83
2024/02/08 01:01:40;;;;;;;0.55;0.50;;;;;;;8.79;100.00;91893.06;2117127;27;20095;-83
2024/02/08 01:02:43;;;;;;;0.70;0.70;;;;;;;8.72;100.00;91896.69;2122793;27;20030;-83
2024/02/08 01:03:45;;;;;;;0.90;0.50;;;;;;;8.74;100.00;91891.69;2107962;28;20530;-83
2024/02/08 01:04:48;;;;;;;1.25;0.40;;;;;;;8.77;100.00;91890.81;2115965;27;20464;-82
2024/02/08 01:05:52;;;;;;;0.40;0.40;;;;;;;8.79;100.00;91893.06;2121201;27;20023;-83
2024/02/08 01:06:53;;;;;;;0.60;0.57;;;;;;;8.90;100.00;91890.00;2112449;27;20028;-82
2024/02/08 01:07:54;;;;;;;0.40;0.40;;;;;;;8.67;100.00;91888.53;2113579;28;20095;-85
2024/02/08 01:08:55;;;;;;;0.70;0.30;;;;;;;8.76;100.00;91905.31;2119891;27;20037;-83
2024/02/08 01:09:56;;;;;;;1.75;0.50;;;;;;;8.95;100.00;91892.84;2127309;27;20495;-83
2024/02/08 01:10:58;;;;;;;1.15;0.57;;;;;;;8.71;100.00;91897.13;2118147;27;20026;-86
2024/02/08 01:12:01;;;;;;;0.40;0.40;;;;;;;8.81;100.00;91888.75;2114010;28;20015;-84
2024/02/08 01:13:04;;;;;;;0.77;0.40;;;;;;;9.21;100.00;91885.44;2104155;28;20038;-82
2024/02/08 01:14:05;;;;;;;0.30;0.30;;;;;;;9.13;100.00;91884.25;2120226;27;20579;-86
2024/02/08 01:15:06;;;;;;;0.30;0.30;;;;;;;9.11;100.00;91881.25;2119106;27;20092;-86
2024/02/08 01:16:11;;;;;;;0.40;0.40;;;;;;;9.18;100.00;91882.94;2118462;27;20019;-83
2024/02/08 01:17:14;;;;;;;0.47;0.40;;;;;;;9.13;100.00;91886.91;2127977;27;20376;-81
2024/02/08 01:18:17;;;;;;;0.63;0.40;;;;;;;9.10;100.00;91887.03;2109984;27;20392;-80
2024/02/08 01:19:25;;;;;;;0.40;0.40;;;;;;;9.25;100.00;91877.31;2102896;27;20124;-84
2024/02/08 01:20:27;;;;;;;0.40;0.40;;;;;;;9.15;100.00;91892.53;2116110;27;20183;-80
2024/02/08 01:21:30;;;;;;;1.55;0.50;;;;;;;9.29;100.00;91880.59;2123313;27;20023;-83
2024/02/08 01:22:31;;;;;;;0.50;0.50;;;;;;;9.11;100.00;91886.59;2126836;27;20420;-84
2024/02/08 01:23:32;;;;;;;0.40;0.40;;;;;;;9.17;100.00;91876.81;2118470;27;20114;-81
2024/02/08 01:24:34;;;;;;;0.63;0.47;;;;;;;9.42;100.00;91886.59;2124736;27;20031;-85
2024/02/08 01:25:35;;;;;;;0.40;0.40;;;;;;;9.27;100.00;91881.03;2124833;27;20031;-84
2024/02/08 01:26:36;;;;;;;0.45;0.40;;;;;;;9.24;100.00;91886.50;2124548;27;20575;-85
2024/02/08 01:27:37;;;;;;;0.40;0.40;;;;;;;9.28;100.00;91889.78;2108054;27;20519;-82
2024/02/08 01:28:40;;;;;;;0.85;0.40;;;;;;;9.24;100.00;91895.25;2113693;28;20047;-83
2024/02/08 01:29:41;;;;;;;1.13;0.38;;;;;;;9.07;100.00;91884.03;2113970;28;20380;-83
2024/02/08 01:30:42;;;;;;;1.55;0.50;;;;;;;9.27;100.00;91885.63;2117887;27;20051;-82
2024/02/08 01:31:44;;;;;;;0.30;0.30;;;;;;;9.25;100.00;91891.38;2116477;27;20453;-81
2024/02/08 01:32:48;;;;;;;1.25;0.40;;;;;;;9.24;100.00;91894.50;2120658;27;20080;-84
2024/02/08 01:33:50;;;;;;;0.30;0.30;;;;;;;9.40;100.00;91899.63;2108299;27;20316;-81
2024/02/08 01:34:52;;;;;;;0.45;0.45;;;;;;;9.26;100.00;91898.22;2118387;27;20027;-82
2024/02/08 01:35:53;;;;;;;0.30;0.30;;;;;;;9.17;100.00;91906.16;2121287;27;20029;-82
2024/02/08 01:36:54;;;;;;;0.63;0.40;;;;;;;9.12;100.00;91909.38;2107063;28;20471;-81
2024/02/08 01:37:55;;;;;;;0.70;0.38;;;;;;;8.96;100.00;91898.94;2127674;27;20026;-84
2024/02/08 01:39:07;;;;;;;0.30;0.30;;;;;;;9.33;100.00;91900.63;2115783;27;20020;-84
2024/02/08 01:40:16;;;;;;;1.23;0.30;;;;;;;9.34;100.00;91894.09;2121413;27;20098;-81
2024/02/08 01:41:17;;;;;;;0.30;0.30;;;;;;;9.37;100.00;91886.41;2119220;27;20027;-86
2024/02/08 01:42:18;;;;;;;0.77;0.35;;;;;;;9.33;100.00;91892.63;2117941;27;20115;-80
2024/02/08 01:43:19;;;;;;;0.43;0.40;;;;;;;9.38;100.00;91896.63;2124874;27;20023;-83
2024/02/08 01:44:23;;;;;;;0.50;0.35;;;;;;;9.26;100.00;91900.13;2124860;27;20084;-87
2024/02/08 01:45:30;;;;;;;0.40;0.40;;;;;;;9.13;100.00;91894.13;2107655;28;20555;-82
2024/02/08 01:46:40;;;;;;;0.22;0.22;;;;;;;9.46;100.00;91905.13;2108842;27;20031;-84
2024/02/08 01:47:47;;;;;;;0.63;0.30;;;;;;;9.10;100.00;91903.03;2126122;27;20027;-83
2024/02/08 01:48:49;;;;;;;0.30;0.30;;;;;;;9.05;100.00;91901.66;2127127;27;20022;-82
2024/02/08 01:49:50;;;;;;;0.65;0.35;;;;;;;9.10;100.00;91903.03;2120783;27;20037;-81
2024/02/08 01:50:56;;;;;;;0.30;0.30;;;;;;;9.23;100.00;91901.03;2125549;27;20027;-85
2024/02/08 01:52:00;;;;;;;0.77;0.30;;;;;;;8.84;100.00;91911.13;2116444;27;20049;-84
2024/02/08 01:53:05;;;;;;;0.30;0.30;;;;;;;8.93;100.00;91902.47;2112080;27;20047;-82
2024/02/08 01:54:08;;;;;;;0.30;0.30;;;;;;;8.88;100.00;91903.78;2117673;27;20027;-81
2024/02/08 01:55:10;;;;;;;0.40;0.40;;;;;;;8.83;100.00;91907.00;2110256;28;20553;-81
2024/02/08 01:56:11;;;;;;;1.65;0.50;;;;;;;8.87;100.00;91904.94;2112327;28;20041;-82
2024/02/08 01:57:13;;;;;;;0.68;0.40;;;;;;;8.99;100.00;91908.72;2127778;27;20440;-81
2024/02/08 01:58:14;;;;;;;0.30;0.30;;;;;;;8.85;100.00;91901.97;2124943;27;20388;-83
2024/02/08 01:59:19;;;;;;;0.32;0.30;;;;;;;9.12;100.00;91897.97;2113947;28;20070;-81
2024/02/08 02:00:20;;;;;;;0.35;0.35;;;;;;;8.90;100.00;91904.06;2112936;27;20697;-85
2024/02/08 02:01:22;;;;;;;1.05;0.40;;;;;;;8.86;100.00;91895.44;2111062;28;20032;-81
2024/02/08 02:02:27;;;;;;;0.70;0.40;;;;;;;8.75;100.00;91901.16;2110215;28;20388;-81
2024/02/08 02:03:28;;;;;;;0.35;0.35;;;;;;;8.91;100.00;91886.91;2123689;27;20033;-82
2024/02/08 02:04:32;;;;;;;0.60;0.40;;;;;;;8.91;100.00;91896.81;2126736;27;20450;-83
2024/02/08 02:05:33;;;;;;;0.50;0.40;;;;;;;9.04;100.00;91887.59;2124444;27;20030;-82
2024/02/08 02:06:35;;;;;;;1.48;0.30;;;;;;;9.07;100.00;91886.69;2122284;27;20052;-85
2024/02/08 02:07:37;;;;;;;0.47;0.30;;;;;;;9.13;100.00;91878.13;2109989;28;20381;-85
2024/02/08 02:08:38;;;;;;;0.88;0.32;;;;;;;9.13;100.00;91880.81;2115741;27;20041;-82
2024/02/08 02:09:39;;;;;;;0.63;0.30;;;;;;;9.15;100.00;91868.53;2125262;27;20025;-83
2024/02/08 02:10:41;;;;;;;0.47;0.47;;;;;;;9.11;100.00;91878.59;2124116;27;20173;-82
2024/02/08 02:11:47;;;;;;;0.70;0.40;;;;;;;9.01;100.00;91874.38;2115701;27;20034;-85
2024/02/08 02:12:49;;;;;;;0.40;0.40;;;;;;;9.06;100.00;91873.81;2121037;27;20072;-83
2024/02/08 02:13:55;;;;;;;0.40;0.40;;;;;;;9.11;100.00;91873.25;2129932;27;20018;-83
2024/02/08 02:15:03;;;;;;;0.30;0.30;;;;;;;9.31;100.00;91871.00;2123675;27;20019;-84
2024/02/08 02:16:05;;;;;;;0.50;0.40;;;;;;;9.22;100.00;91870.94;2122165;27;20100;-81
2024/02/08 02:17:11;;;;;;;0.40;0.40;;;;;;;9.27;100.00;91870.38;2122103;27;20031;-81
2024/02/08 02:18:16;;;;;;;0.50;0.30;;;;;;;9.13;100.00;91870.91;2117568;27;20023;-82
2024/02/08 02:19:17;;;;;;;0.28;0.28;;;;;;;9.10;100.00;91874.44;2126045;27;20023;-81
2024/02/08 02:20:18;;;;;;;0.38;0.38;;;;;;;8.98;100.00;91870.66;2123973;27;20092;-80
2024/02/08 02:21:21;;;;;;;0.40;0.40;;;;;;;9.11;100.00;91880.50;2125673;27;20487;-82
2024/02/08 02:22:22;;;;;;;0.40;0.40;;;;;;;9.24;100.00;91879.25;2124574;27;21437;-84
2024/02/08 02:23:24;;;;;;;0.80;0.38;;;;;;;9.13;100.00;91873.56;2126533;27;20099;-79
2024/02/08 02:24:25;;;;;;;0.30;0.30;;;;;;;8.99;100.00;91874.06;2123721;27;20138;-84
2024/02/08 02:25:28;;;;;;;0.30;0.30;;;;;;;9.01;100.00;91877.06;2118369;27;20023;-82
2024/02/08 02:26:32;;;;;;;0.20;0.20;;;;;;;9.04;100.00;91866.28;2115158;27;20016;-84
2024/02/08 02:27:34;;;;;;;0.38;0.30;;;;;;;9.02;100.00;91881.94;2119765;27;20023;-81
2024/02/08 02:28:36;;;;;;;0.30;0.30;;;;;;;8.97;100.00;91868.44;2109383;28;20035;-81
2024/02/08 02:29:39;;;;;;;0.30;0.30;;;;;;;9.03;100.00;91869.34;2110918;27;20023;-80
2024/02/08 02:30:40;;;;;;;0.30;0.30;;;;;;;9.15;100.00;91862.47;2115045;28;20080;-84
2024/02/08 02:31:42;;;;;;;1.73;0.50;;;;;;;8.98;100.00;91869.91;2105156;28;20027;-85
2024/02/08 02:32:47;;;;;;;0.73;0.30;;;;;;;9.15;100.00;91879.19;2117777;28;20546;-82
2024/02/08 02:33:48;;;;;;;1.65;0.30;;;;;;;9.01;100.00;91869.06;2112168;28;20042;-82
2024/02/08 02:34:53;;;;;;;0.63;0.30;;;;;;;9.19;100.00;91871.06;2109706;27;20020;-82
2024/02/08 02:35:55;;;;;;;0.20;0.20;;;;;;;9.07;100.00;91873.38;2107685;28;20473;-80
2024/02/08 02:36:58;;;;;;;0.40;0.40;;;;;;;9.14;100.00;91876.97;2110728;28;20049;-84
2024/02/08 02:38:02;;;;;;;0.22;0.22;;;;;;;9.34;100.00;91867.44;2120123;27;20102;-81
2024/02/08 02:39:05;;;;;;;0.30;0.30;;;;;;;9.34;100.00;91864.75;2118162;27;20023;-83
2024/02/08 02:40:06;;;;;;;0.30;0.30;;;;;;;8.96;100.00;91854.38;2118468;27;20105;-82
2024/02/08 02:41:07;;;;;;;1.88;0.40;;;;;;;8.97;100.00;91868.44;2116006;28;20115;-82
2024/02/08 02:42:08;;;;;;;0.45;0.45;;;;;;;9.03;100.00;91867.44;2117894;27;20040;-85
2024/02/08 02:43:09;;;;;;;0.35;0.30;;;;;;;9.13;100.00;91868.25;2118784;28;20038;-83
2024/02/08 02:44:10;;;;;;;0.80;0.40;;;;;;;9.20;100.00;91867.22;2112464;28;20055;-81
2024/02/08 02:45:13;;;;;;;0.43;0.43;;;;;;;9.27;100.00;91864.31;2108405;28;20034;-81
2024/02/08 02:46:18;;;;;;;0.30;0.30;;;;;;;9.43;100.00;91863.31;2109888;28;20020;-81
2024/02/08 02:47:25;;;;;;;0.40;0.40;;;;;;;9.30;100.00;91863.41;2117204;28;20077;-83
2024/02/08 02:48:26;;;;;;;2.40;0.40;;;;;;;9.13;100.00;91867.47;2117396;28;20036;-84
2024/02/08 02:49:27;;;;;;;0.30;0.30;;;;;;;9.15;100.00;91862.47;2113543;28;20389;-81
2024/02/08 02:50:28;;;;;;;0.30;0.30;;;;;;;9.38;100.00;91859.31;2117205;28;20466;-83
2024/02/08 02:51:31;;;;;;;0.40;0.40;;;;;;;9.36;100.00;91853.69;2119377;27;20110;-82
2024/02/08 02:52:32;;;;;;;0.50;0.40;;;;;;;9.43;100.00;91860.66;2119485;27;20430;-82
2024/02/08 02:53:33;;;;;;;0.90;0.40;;;;;;;9.24;100.00;91857.91;2117289;27;20031;-83
2024/02/08 02:54:38;;;;;;;0.38;0.38;;;;;;;9.27;100.00;91856.31;2125214;27;20027;-84
2024/02/08 02:55:40;;;;;;;1.27;0.40;;;;;;;9.29;100.00;91856.59;2126397;27;20026;-82
2024/02/08 02:56:47;;;;;;;0.30;0.30;;;;;;;9.12;100.00;91858.00;2116307;28;20035;-84
2024/02/08 02:57:48;;;;;;;0.40;0.40;;;;;;;9.31;100.00;91848.91;2123484;27;20024;-82
2024/02/08 02:58:49;;;;;;;0.30;0.30;;;;;;;9.41;100.00;91855.78;2124483;27;20016;-84
2024/02/08 02:59:50;;;;;;;0.77;0.38;;;;;;;9.27;100.00;91854.38;2110872;28;20535;-85
2024/02/08 03:01:04;;;;;;;0.30;0.30;;;;;;;9.37;100.00;91849.81;2100957;28;20058;-84
2024/02/08 03:02:08;;;;;;;1.17;0.40;;;;;;;9.22;100.00;91857.63;2118239;28;20431;-86
2024/02/08 03:03:12;;;;;;;0.32;0.32;;;;;;;9.37;100.00;91860.50;2124439;27;20039;-83
2024/02/08 03:04:17;;;;;;;0.30;0.30;;;;;;;9.34;100.00;91859.44;2128219;27;20030;-80
2024/02/08 03:05:20;;;;;;;0.30;0.30;;;;;;;9.30;100.00;91860.75;2124428;27;20113;-82
2024/02/08 03:06:26;;;;;;;0.38;0.38;;;;;;;9.12;100.00;91863.31;2118176;27;20357;-80
2024/02/08 03:07:28;;;;;;;1.02;0.30;;;;;;;9.02;100.00;91865.94;2118629;27;20027;-85
2024/02/08 03:08:29;;;;;;;0.68;0.30;;;;;;;8.92;100.00;91863.69;2115500;28;20030;-82
2024/02/08 03:09:31;;;;;;;0.47;0.30;;;;;;;9.07;100.00;91872.63;2113501;28;20023;-81
2024/02/08 03:10:34;;;;;;;0.35;0.35;;;;;;;9.18;100.00;91865.00;2115923;27;20027;-82
2024/02/08 03:11:35;;;;;;;0.40;0.30;;;;;;;9.16;100.00;91867.34;2112688;28;20027;-83
2024/02/08 03:12:37;;;;;;;0.55;0.50;;;;;;;8.90;100.00;91861.44;2101290;28;20373;-86
2024/02/08 03:13:43;;;;;;;0.50;0.30;;;;;;;8.99;100.00;91866.81;2117365;28;20492;-81
2024/02/08 03:14:57;;;;;;;1.08;0.30;;;;;;;9.02;100.00;91865.94;2123416;27;20027;-81
2024/02/08 03:15:58;;;;;;;0.47;0.40;;;;;;;9.07;100.00;91867.31;2124986;27;20019;-81
2024/02/08 03:17:02;;;;;;;0.45;0.35;;;;;;;9.11;100.00;91872.50;2122176;27;20068;-83
2024/02/08 03:18:03;;;;;;;0.50;0.40;;;;;;;9.19;100.00;91871.81;2124628;27;20025;-82
2024/02/08 03:19:07;;;;;;;0.52;0.45;;;;;;;8.94;100.00;91869.31;2114996;28;20133;-81
2024/02/08 03:20:11;;;;;;;0.90;0.60;;;;;;;9.20;100.00;91867.22;2123826;27;20360;-83
2024/02/08 03:21:17;;;;;;;0.30;0.30;;;;;;;8.98;100.00;91865.34;2123873;27;20057;-81
2024/02/08 03:22:18;;;;;;;0.32;0.32;;;;;;;9.00;100.00;91865.66;2121183;27;20023;-82
2024/02/08 03:23:24;;;;;;;0.30;0.30;;;;;;;8.99;100.00;91864.16;2125495;27;20484;-81
2024/02/08 03:24:34;;;;;;;1.40;0.35;;;;;;;9.28;100.00;91860.44;2129081;27;20025;-80
2024/02/08 03:25:40;;;;;;;0.45;0.40;;;;;;;8.99;100.00;91860.75;2126902;27;20023;-84
2024/02/08 03:26:43;;;;;;;0.40;0.40;;;;;;;9.11;100.00;91859.91;2125664;27;20434;-86
2024/02/08 03:27:44;;;;;;;0.40;0.40;;;;;;;9.00;100.00;91862.22;2126408;27;20041;-83
2024/02/08 03:28:46;;;;;;;0.57;0.50;;;;;;;8.98;100.00;91860.00;2125020;27;20108;-81
2024/02/08 03:29:53;;;;;;;0.50;0.40;;;;;;;9.13;100.00;91868.25;2127753;27;20055;-82
2024/02/08 03:30:55;;;;;;;0.75;0.40;;;;;;;9.16;100.00;91853.28;2117077;27;20034;-79
2024/02/08 03:31:56;;;;;;;0.30;0.30;;;;;;;9.06;100.00;91855.91;2105758;27;20049;-84
2024/02/08 03:32:58;;;;;;;0.30;0.30;;;;;;;9.05;100.00;91861.69;2122472;27;20092;-86
2024/02/08 03:33:59;;;;;;;0.45;0.43;;;;;;;9.04;100.00;91857.50;2117351;27;20070;-83
2024/02/08 03:35:00;;;;;;;0.30;0.30;;;;;;;8.93;100.00;91860.56;2127274;27;20415;-83
2024/02/08 03:36:06;;;;;;;0.40;0.40;;;;;;;8.81;100.00;91858.72;2115416;27;20143;-83
2024/02/08 03:37:08;;;;;;;1.98;0.30;;;;;;;8.89;100.00;91853.88;2118550;27;20341;-85
2024/02/08 03:38:09;;;;;;;0.52;0.40;;;;;;;8.89;100.00;91857.28;2113096;27;20110;-83
2024/02/08 03:39:20;;;;;;;1.05;0.40;;;;;;;8.87;100.00;91862.31;2115072;27;20030;-84
2024/02/08 03:40:22;;;;;;;0.30;0.30;;;;;;;8.92;100.00;91855.69;2123863;27;20034;-81
2024/02/08 03:41:26;;;;;;;0.30;0.30;;;;;;;8.85;100.00;91858.59;2123450;27;20034;-83
2024/02/08 03:42:27;;;;;;;0.80;0.40;;;;;;;8.91;100.00;91854.94;2115391;27;20456;-79
2024/02/08 03:43:28;;;;;;;1.05;0.38;;;;;;;8.93;100.00;91857.91;2122786;27;20467;-83
2024/02/08 03:44:33;;;;;;;0.47;0.30;;;;;;;8.90;100.00;91848.09;2118828;27;20023;-82
2024/02/08 03:45:39;;;;;;;0.40;0.40;;;;;;;8.78;100.00;91851.59;2126083;27;20022;-80
2024/02/08 03:46:41;;;;;;;0.40;0.40;;;;;;;8.74;100.00;91849.06;2125231;27;20102;-82
2024/02/08 03:47:44;;;;;;;0.30;0.30;;;;;;;8.87;100.00;91853.56;2126614;27;20068;-84
2024/02/08 03:48:46;;;;;;;0.93;0.40;;;;;;;8.75;100.00;91847.13;2123242;27;20031;-85
2024/02/08 03:49:51;;;;;;;0.50;0.40;;;;;;;8.81;100.00;91851.47;2126184;27;20085;-84
2024/02/08 03:50:52;;;;;;;0.30;0.30;;;;;;;8.99;100.00;91850.81;2126933;27;20047;-82
2024/02/08 03:51:53;;;;;;;1.38;0.30;;;;;;;9.10;100.00;91839.78;2121405;27;20429;-81
2024/02/08 03:52:54;;;;;;;0.40;0.40;;;;;;;9.08;100.00;91840.19;2109810;27;20078;-84
2024/02/08 03:54:00;;;;;;;1.40;0.40;;;;;;;8.98;100.00;91845.94;2110299;28;20028;-83
2024/02/08 03:55:01;;;;;;;0.68;0.40;;;;;;;9.01;100.00;91843.16;2111296;27;20028;-82
2024/02/08 03:56:05;;;;;;;0.30;0.30;;;;;;;9.08;100.00;91837.53;2117761;27;20124;-85
2024/02/08 03:57:07;;;;;;;0.30;0.30;;;;;;;9.15;100.00;91830.47;2127929;27;20463;-82
2024/02/08 03:58:09;;;;;;;4.10;0.40;;;;;;;9.19;100.00;91833.75;2124124;27;20126;-83
2024/02/08 03:59:11;;;;;;;0.30;0.30;;;;;;;8.97;100.00;91821.22;2123434;27;20030;-84
2024/02/08 04:00:13;;;;;;;0.40;0.30;;;;;;;9.31;100.00;91825.66;2120995;27;20023;-84
2024/02/08 04:01:15;;;;;;;0.30;0.30;;;;;;;9.34;100.00;91816.03;2107931;28;20427;-83
2024/02/08 04:02:21;;;;;;;0.20;0.20;;;;;;;9.26;100.00;91826.25;2112886;27;20027;-83
2024/02/08 04:04:50;;;;;;;0.63;0.63;;;;;;;9.20;100.00;91811.97;2127606;27;20026;-82
2024/02/08 04:07:14;;;;;;;0.30;0.30;;;;;;;9.00;100.00;91806.25;2129444;27;20015;-82
2024/02/08 04:09:36;;;;;;;0.30;0.30;;;;;;;8.87;100.00;91784.28;2128371;27;20054;-82
2024/02/08 04:54:16;;;;;;;0.63;0.40;;;;;;;9.16;100.00;91800.69;2125816;27;20064;-83
2024/02/08 04:55:17;;;;;;;1.63;0.50;;;;;;;8.87;100.00;91805.59;2125325;27;20030;-81
2024/02/08 04:56:18;;;;;;;1.00;0.50;;;;;;;8.94;100.00;91811.41;2118998;27;20062;-82
2024/02/08 04:57:19;;;;;;;0.68;0.50;;;;;;;9.09;100.00;91795.66;2118547;27;20037;-83
2024/02/08 04:58:21;;;;;;;0.50;0.50;;;;;;;9.03;100.00;91800.78;2116333;27;20043;-83
2024/02/08 04:59:21;;;;;;;0.50;0.50;;;;;;;9.12;100.00;91804.69;2120362;27;20027;-85
2024/02/08 05:00:27;;;;;;;1.48;0.40;;;;;;;9.25;100.00;91792.75;2106392;28;20043;-80
2024/02/08 05:01:28;;;;;;;2.95;0.68;;;;;;;9.04;100.00;91804.19;2119196;27;20333;-80
2024/02/08 05:02:31;;;;;;;1.38;0.70;;;;;;;9.15;100.00;91798.47;2127530;27;20034;-84
2024/02/08 05:03:37;;;;;;;1.35;0.70;;;;;;;8.96;100.00;91811.75;2125426;27;20133;-83
2024/02/08 05:04:37;;;;;;;1.65;0.32;;;;;;;8.86;100.00;91814.78;2121110;27;20097;-81
2024/02/08 05:05:43;;;;;;;0.50;0.50;;;;;;;8.88;100.00;91823.09;2114501;28;20027;-84
2024/02/08 05:06:45;;;;;;;0.88;0.50;;;;;;;8.77;100.00;91818.13;2123069;27;20476;-84
2024/02/08 05:07:48;;;;;;;0.95;0.60;;;;;;;8.77;100.00;91813.53;2116620;27;20063;-83
2024/02/08 05:08:50;;;;;;;0.50;0.50;;;;;;;8.85;100.00;91822.03;2108324;28;20419;-84
2024/02/08 05:09:51;;;;;;;0.70;0.70;;;;;;;8.68;100.00;91804.75;2105713;28;20036;-84
2024/02/08 05:10:52;;;;;;;1.58;0.38;;;;;;;8.50;100.00;91824.03;2113042;27;20054;-81
2024/02/08 05:11:53;;;;;;;0.55;0.55;;;;;;;8.80;100.00;91811.94;2116671;27;20408;-83
2024/02/08 05:12:56;;;;;;;0.60;0.43;;;;;;;8.87;100.00;91826.91;2112217;28;20032;-82
2024/02/08 05:14:01;;;;;;;0.60;0.60;;;;;;;8.86;100.00;91823.50;2105833;27;20024;-82
2024/02/08 05:15:02;;;;;;;0.70;0.40;;;;;;;8.98;100.00;91827.28;2110582;28;20031;-82
2024/02/08 05:16:05;;;;;;;0.90;0.40;;;;;;;9.03;100.00;91838.09;2100467;28;20110;-83
2024/02/08 05:17:08;;;;;;;0.30;0.30;;;;;;;8.85;100.00;91830.03;2114346;27;20066;-83
2024/02/08 05:18:11;;;;;;;0.77;0.47;;;;;;;8.91;100.00;91830.19;2119157;27;20138;-82
2024/02/08 05:19:14;;;;;;;0.40;0.40;;;;;;;8.96;100.00;91829.66;2129503;27;20375;-84
2024/02/08 05:20:15;;;;;;;0.38;0.38;;;;;;;8.78;100.00;91835.59;2122085;27;20054;-83
2024/02/08 05:21:16;;;;;;;0.32;0.32;;;;;;;8.86;100.00;91834.16;2114159;28;20488;-82
2024/02/08 05:22:17;;;;;;;0.43;0.43;;;;;;;8.83;100.00;91843.06;2109652;28;20046;-82
2024/02/08 05:23:18;;;;;;;0.47;0.45;;;;;;;8.86;100.00;91847.50;2109449;27;20020;-82
2024/02/08 05:24:20;;;;;;;0.68;0.50;;;;;;;8.90;100.00;91837.44;2129861;27;20057;-83
2024/02/08 05:25:21;;;;;;;0.55;0.30;;;;;;;9.04;100.00;91823.63;2115082;27;20376;-83
2024/02/08 05:26:25;;;;;;;0.55;0.50;;;;;;;8.85;100.00;91830.03;2117464;27;20031;-81
2024/02/08 05:27:26;;;;;;;1.70;0.50;;;;;;;8.96;100.00;91832.31;2124863;27;20027;-81
2024/02/08 05:28:28;;;;;;;0.68;0.40;;;;;;;8.92;100.00;91829.78;2126162;27;20035;-83
2024/02/08 05:29:29;;;;;;;0.57;0.43;;;;;;;9.02;100.00;91825.22;2127724;27;20015;-81
2024/02/08 05:30:32;;;;;;;0.65;0.30;;;;;;;9.03;100.00;91834.69;2123070;27;20019;-81
2024/02/08 05:31:39;;;;;;;0.40;0.40;;;;;;;8.77;100.00;91826.13;2121145;27;20026;-82
2024/02/08 05:32:43;;;;;;;0.65;0.30;;;;;;;9.01;100.00;91821.81;2122330;27;20039;-84
2024/02/08 05:33:44;;;;;;;0.75;0.43;;;;;;;9.10;100.00;91828.38;2122412;27;20378;-84
2024/02/08 05:34:45;;;;;;;0.50;0.40;;;;;;;9.04;100.00;91823.63;2114989;27;20031;-85
2024/02/08 05:35:46;;;;;;;1.95;0.40;;;;;;;9.04;100.00;91828.19;2118162;27;20077;-83
2024/02/08 05:36:49;;;;;;;1.27;0.60;;;;;;;9.06;100.00;91820.50;2114205;27;20468;-82
2024/02/08 05:37:53;;;;;;;0.75;0.60;;;;;;;9.23;100.00;91823.69;2123171;27;20030;-82
2024/02/08 05:38:56;;;;;;;2.05;0.40;;;;;;;8.92;100.00;91816.44;2123375;27;20076;-83
2024/02/08 05:39:57;;;;;;;0.40;0.40;;;;;;;9.03;100.00;91826.72;2122997;27;20491;-83
2024/02/08 05:40:58;;;;;;;1.48;0.47;;;;;;;9.05;100.00;91821.69;2114367;28;20028;-84
2024/02/08 05:41:59;;;;;;;0.40;0.40;;;;;;;9.15;100.00;91815.22;2105854;28;20028;-81
2024/02/08 05:43:00;;;;;;;1.60;0.50;;;;;;;9.00;100.00;91804.34;2108392;27;20135;-83
2024/02/08 05:44:05;;;;;;;0.40;0.40;;;;;;;9.02;100.00;91806.56;2127477;27;20030;-83